Time;durP1;ratioP1;P1;durP2;ratioP2;P2;SDS_P1;SDS_P2;PMS_P1;PMS_P2;Temp;Humidity;BMP_temperature;BMP_pressure;BME280_temperature;BME280_humidity;BME280_pressure;Samples;Min_cycle;Max_cycle;Signal;HPM_P1;HPM_P2
2023/09/08 00:02:12;;;;;;;7.47;6.25;;;19.50;99.90;;;;;;4993752;28;20231;-71
2023/09/08 00:04:38;;;;;;;7.60;6.68;;;19.50;99.90;;;;;;4993658;28;20185;-71
2023/09/08 00:07:04;;;;;;;7.30;5.88;;;19.50;99.90;;;;;;4993211;28;20181;-71
2023/09/08 00:09:29;;;;;;;7.18;6.30;;;19.50;99.90;;;;;;4993700;28;20197;-70
2023/09/08 00:11:55;;;;;;;6.80;6.05;;;19.50;99.90;;;;;;4993236;28;20181;-70
2023/09/08 00:14:20;;;;;;;7.00;6.03;;;19.50;99.90;;;;;;4993403;28;20177;-70
2023/09/08 00:16:46;;;;;;;8.50;6.73;;;19.50;99.90;;;;;;4993177;28;20184;-71
2023/09/08 00:19:12;;;;;;;9.05;6.20;;;19.40;99.90;;;;;;4992924;28;20201;-71
2023/09/08 00:21:37;;;;;;;8.65;6.15;;;19.40;99.90;;;;;;4993268;28;20271;-71
2023/09/08 00:24:04;;;;;;;6.53;6.00;;;19.40;99.90;;;;;;4991870;28;20187;-70
2023/09/08 00:26:30;;;;;;;8.07;6.97;;;19.30;99.90;;;;;;4993351;28;20247;-70
2023/09/08 00:28:56;;;;;;;10.63;6.35;;;19.30;99.90;;;;;;4992504;28;20295;-71
2023/09/08 00:31:21;;;;;;;6.68;5.97;;;19.30;99.90;;;;;;4993019;28;20264;-70
2023/09/08 00:33:47;;;;;;;7.22;6.32;;;19.20;99.90;;;;;;4990939;28;20177;-70
2023/09/08 00:36:13;;;;;;;10.00;6.80;;;19.20;99.90;;;;;;4985660;28;20243;-70
2023/09/08 00:38:38;;;;;;;6.38;5.78;;;19.20;99.90;;;;;;4992488;28;20583;-71
2023/09/08 00:41:07;;;;;;;6.72;6.07;;;19.10;99.90;;;;;;4992839;28;20211;-70
2023/09/08 00:43:33;;;;;;;7.75;7.00;;;19.10;99.90;;;;;;4992806;28;20191;-71
2023/09/08 00:46:00;;;;;;;8.07;6.97;;;19.00;99.90;;;;;;4992674;28;20243;-71
2023/09/08 00:48:26;;;;;;;8.25;6.70;;;19.00;99.90;;;;;;4992430;28;20710;-70
2023/09/08 00:50:52;;;;;;;7.22;6.07;;;19.00;99.90;;;;;;4992611;28;20173;-70
2023/09/08 00:53:18;;;;;;;8.57;7.13;;;19.00;99.90;;;;;;4992521;28;20180;-70
2023/09/08 00:55:44;;;;;;;7.97;6.47;;;19.00;99.90;;;;;;4992324;28;20187;-70
2023/09/08 00:58:11;;;;;;;8.05;6.60;;;18.90;99.90;;;;;;4992340;28;20612;-71
2023/09/08 01:00:37;;;;;;;7.43;6.30;;;18.80;99.90;;;;;;4992471;28;20569;-70
2023/09/08 01:03:03;;;;;;;9.30;6.97;;;18.70;99.90;;;;;;4991922;28;20181;-70
2023/09/08 01:05:29;;;;;;;7.30;6.60;;;18.70;99.90;;;;;;4992470;28;20195;-70
2023/09/08 01:07:55;;;;;;;10.03;6.63;;;18.70;99.90;;;;;;4991909;28;20617;-71
2023/09/08 01:10:21;;;;;;;10.70;7.20;;;18.70;99.90;;;;;;4992437;28;20183;-70
2023/09/08 01:12:47;;;;;;;9.48;7.55;;;18.70;99.90;;;;;;4992188;28;20470;-71
2023/09/08 01:15:13;;;;;;;7.82;7.03;;;18.60;99.90;;;;;;4992191;28;20246;-69
2023/09/08 01:17:39;;;;;;;10.83;7.43;;;18.60;99.90;;;;;;4992196;28;20541;-70
2023/09/08 01:20:10;;;;;;;8.10;6.95;;;18.60;99.90;;;;;;4992131;28;20204;-71
2023/09/08 01:22:44;;;;;;;9.17;7.90;;;18.60;99.90;;;;;;4992164;28;20481;-71
2023/09/08 01:25:19;;;;;;;10.07;6.87;;;18.50;99.90;;;;;;4985258;28;20176;-71
2023/09/08 01:27:55;;;;;;;8.40;7.10;;;18.50;99.90;;;;;;4990525;28;20587;-70
2023/09/08 01:30:24;;;;;;;10.73;6.80;;;18.50;99.90;;;;;;4992098;28;20196;-70
2023/09/08 01:32:51;;;;;;;8.23;7.37;;;18.50;99.90;;;;;;4991867;28;20658;-71
2023/09/08 01:35:17;;;;;;;7.70;6.90;;;18.40;99.90;;;;;;4992198;28;20656;-70
2023/09/08 01:37:46;;;;;;;9.83;7.23;;;18.40;99.90;;;;;;4991461;28;20189;-71
2023/09/08 01:40:12;;;;;;;9.97;7.47;;;18.40;99.90;;;;;;4992045;28;20177;-70
2023/09/08 01:42:38;;;;;;;11.77;7.03;;;18.30;99.90;;;;;;4991979;28;20185;-70
2023/09/08 01:45:05;;;;;;;11.07;8.05;;;18.30;99.90;;;;;;4991979;28;20384;-70
2023/09/08 01:47:31;;;;;;;8.98;7.03;;;18.30;99.90;;;;;;4991785;28;20593;-70
2023/09/08 01:49:56;;;;;;;8.17;6.77;;;18.20;99.90;;;;;;4991664;28;20283;-70
2023/09/08 01:52:22;;;;;;;9.37;7.40;;;18.20;99.90;;;;;;4992013;28;20181;-70
2023/09/08 01:54:47;;;;;;;8.17;7.23;;;18.20;99.90;;;;;;4991639;28;20188;-71
2023/09/08 01:57:13;;;;;;;9.93;7.47;;;18.20;99.90;;;;;;4991485;28;20248;-70
2023/09/08 01:59:39;;;;;;;11.43;7.10;;;18.20;99.90;;;;;;4991694;28;20679;-71
2023/09/08 02:02:06;;;;;;;9.73;7.70;;;18.10;99.90;;;;;;4991723;28;20204;-71
2023/09/08 02:04:31;;;;;;;9.07;7.30;;;18.00;99.90;;;;;;4991773;28;20195;-70
2023/09/08 02:06:57;;;;;;;10.83;7.87;;;18.00;99.90;;;;;;4991576;28;20184;-70
2023/09/08 02:09:33;;;;;;;8.53;7.07;;;18.00;99.90;;;;;;4991329;28;20207;-70
2023/09/08 02:11:59;;;;;;;8.80;7.37;;;18.00;99.90;;;;;;4990385;28;20184;-70
2023/09/08 02:14:25;;;;;;;9.83;7.90;;;17.90;99.90;;;;;;4995522;28;20180;-70
2023/09/08 02:16:51;;;;;;;8.83;7.83;;;17.90;99.90;;;;;;4994259;28;20184;-70
2023/09/08 02:19:16;;;;;;;8.80;7.50;;;17.90;99.90;;;;;;4995232;28;20201;-70
2023/09/08 02:21:42;;;;;;;9.37;8.10;;;17.90;99.90;;;;;;4995243;28;20196;-70
2023/09/08 02:24:07;;;;;;;10.00;7.87;;;17.80;99.90;;;;;;4995521;28;20215;-71
2023/09/08 02:26:33;;;;;;;8.50;7.70;;;17.80;99.90;;;;;;4995609;28;20185;-70
2023/09/08 02:29:00;;;;;;;9.33;8.43;;;17.80;99.90;;;;;;4993035;28;20314;-70
2023/09/08 02:31:27;;;;;;;9.77;8.77;;;17.80;99.90;;;;;;4995272;28;20224;-71
2023/09/08 02:33:52;;;;;;;10.13;8.67;;;17.80;99.90;;;;;;4993865;28;20235;-70
2023/09/08 02:36:25;;;;;;;10.33;7.73;;;17.80;99.90;;;;;;4995412;28;20188;-70
2023/09/08 02:38:51;;;;;;;10.63;7.83;;;17.80;99.90;;;;;;4994797;28;20267;-70
2023/09/08 02:41:17;;;;;;;9.47;8.13;;;17.70;99.90;;;;;;4995202;28;20181;-70
2023/09/08 02:43:42;;;;;;;11.20;8.30;;;17.70;99.90;;;;;;4995110;28;20187;-70
2023/09/08 02:46:09;;;;;;;8.70;7.87;;;17.60;99.90;;;;;;4995070;28;20187;-71
2023/09/08 02:48:35;;;;;;;12.20;8.43;;;17.60;99.90;;;;;;4994828;28;20684;-70
2023/09/08 02:51:01;;;;;;;10.17;7.67;;;17.60;99.90;;;;;;4994835;28;20248;-71
2023/09/08 02:53:28;;;;;;;10.10;8.30;;;17.60;99.90;;;;;;4994887;28;20211;-70
2023/09/08 02:56:00;;;;;;;9.17;8.20;;;17.70;99.90;;;;;;4994836;28;20177;-70
2023/09/08 02:58:27;;;;;;;9.47;8.43;;;17.60;99.90;;;;;;4993458;28;20208;-70
2023/09/08 03:00:53;;;;;;;9.10;8.17;;;17.60;99.90;;;;;;4994687;28;20189;-70
2023/09/08 03:03:19;;;;;;;14.13;8.47;;;17.60;99.90;;;;;;4995007;28;20212;-70
2023/09/08 03:05:45;;;;;;;12.17;8.33;;;17.60;99.90;;;;;;4994820;28;20608;-70
2023/09/08 03:08:11;;;;;;;11.33;8.63;;;17.60;99.90;;;;;;4994299;28;20291;-71
2023/09/08 03:10:36;;;;;;;9.40;8.03;;;17.60;99.90;;;;;;4994832;28;20191;-70
2023/09/08 03:13:05;;;;;;;9.30;8.03;;;17.50;99.90;;;;;;4994497;28;20269;-71
2023/09/08 03:15:31;;;;;;;9.80;8.80;;;17.50;99.90;;;;;;4994616;28;20271;-70
2023/09/08 03:17:58;;;;;;;11.30;8.60;;;17.50;99.90;;;;;;4994119;28;20609;-70
2023/09/08 03:20:26;;;;;;;10.27;9.27;;;17.50;99.90;;;;;;4994761;28;20177;-70
2023/09/08 03:22:52;;;;;;;9.20;8.37;;;17.50;99.90;;;;;;4994342;28;20247;-71
2023/09/08 03:25:18;;;;;;;12.80;8.73;;;17.50;99.90;;;;;;4993686;28;20192;-70
2023/09/08 03:27:43;;;;;;;9.23;8.23;;;17.40;99.90;;;;;;4993984;28;20208;-71
2023/09/08 03:30:09;;;;;;;12.77;9.20;;;17.40;99.90;;;;;;4994308;28;20208;-70
2023/09/08 03:32:36;;;;;;;12.23;8.47;;;17.40;99.90;;;;;;4994278;28;20177;-70
2023/09/08 03:35:01;;;;;;;8.67;7.70;;;17.40;99.90;;;;;;4994138;28;20213;-71
2023/09/08 03:37:27;;;;;;;10.10;8.70;;;17.40;99.90;;;;;;4993823;28;20621;-71
2023/09/08 03:39:53;;;;;;;10.30;7.87;;;17.40;99.90;;;;;;4992971;28;20197;-70
2023/09/08 03:42:18;;;;;;;12.63;8.07;;;17.30;99.90;;;;;;4994144;28;20188;-71
2023/09/08 03:44:44;;;;;;;13.57;8.33;;;17.30;99.90;;;;;;4994128;28;20684;-70
2023/09/08 03:47:10;;;;;;;9.90;8.67;;;17.40;99.90;;;;;;4993754;28;20187;-70
2023/09/08 03:49:35;;;;;;;13.60;8.43;;;17.30;99.90;;;;;;4993953;28;20259;-70
2023/09/08 03:52:01;;;;;;;12.93;8.50;;;17.30;99.90;;;;;;4993795;28;20181;-70
2023/09/08 03:54:27;;;;;;;9.70;8.47;;;17.30;99.90;;;;;;4994032;28;20287;-70
2023/09/08 03:56:52;;;;;;;11.97;8.00;;;17.30;99.90;;;;;;4993793;28;20181;-70
2023/09/08 03:59:18;;;;;;;10.43;7.47;;;17.30;99.90;;;;;;4992390;28;20197;-70
2023/09/08 04:01:44;;;;;;;8.77;7.73;;;17.30;99.90;;;;;;4992619;28;20240;-70
2023/09/08 04:04:09;;;;;;;10.53;7.57;;;17.30;99.90;;;;;;4992422;28;20231;-70
2023/09/08 04:06:35;;;;;;;8.33;7.40;;;17.30;99.90;;;;;;4993717;28;20188;-70
2023/09/08 04:09:00;;;;;;;8.80;8.00;;;17.30;99.90;;;;;;4993115;28;20566;-70
2023/09/08 04:11:26;;;;;;;8.13;7.43;;;17.20;99.90;;;;;;4993574;28;20212;-70
2023/09/08 04:13:52;;;;;;;8.53;7.67;;;17.20;99.90;;;;;;4992082;28;20184;-70
2023/09/08 04:16:18;;;;;;;8.53;7.73;;;17.20;99.90;;;;;;4993571;28;20669;-70
2023/09/08 04:18:44;;;;;;;11.20;7.33;;;17.20;99.90;;;;;;4993219;28;20687;-70
2023/09/08 04:21:10;;;;;;;11.03;7.70;;;17.20;99.90;;;;;;4993482;28;20564;-70
2023/09/08 04:23:35;;;;;;;8.73;7.33;;;17.20;99.90;;;;;;4993183;28;20187;-70
2023/09/08 04:26:01;;;;;;;8.77;7.50;;;17.20;99.90;;;;;;4993149;28;20189;-70
2023/09/08 04:28:27;;;;;;;8.17;7.37;;;17.20;99.90;;;;;;4991660;28;20200;-70
2023/09/08 04:30:52;;;;;;;7.60;6.80;;;17.10;99.90;;;;;;4993248;28;20190;-70
2023/09/08 04:33:18;;;;;;;8.37;7.57;;;17.10;99.90;;;;;;4993066;28;20225;-70
2023/09/08 04:35:43;;;;;;;9.80;7.20;;;17.10;99.90;;;;;;4992691;28;20239;-69
2023/09/08 04:38:09;;;;;;;8.20;7.40;;;17.10;99.90;;;;;;4992158;28;20204;-71
2023/09/08 04:40:35;;;;;;;8.40;7.43;;;17.10;99.90;;;;;;4993116;28;20680;-70
2023/09/08 04:43:00;;;;;;;8.47;7.30;;;17.10;99.90;;;;;;4992625;28;20181;-70
2023/09/08 04:45:26;;;;;;;8.03;7.10;;;17.00;99.90;;;;;;4992818;28;20177;-71
2023/09/08 04:47:52;;;;;;;10.60;7.57;;;17.00;99.90;;;;;;4992258;28;20200;-70
2023/09/08 04:50:18;;;;;;;8.50;7.70;;;17.00;99.90;;;;;;4992808;28;20223;-70
2023/09/08 04:52:43;;;;;;;10.97;7.80;;;17.00;99.90;;;;;;4992696;28;20187;-70
2023/09/08 04:55:10;;;;;;;8.30;7.27;;;17.00;99.90;;;;;;4992564;28;20180;-71
2023/09/08 04:57:35;;;;;;;9.00;7.83;;;17.00;99.90;;;;;;4991019;28;20185;-70
2023/09/08 05:00:02;;;;;;;9.37;7.47;;;17.00;99.90;;;;;;4992365;28;20730;-71
2023/09/08 05:02:27;;;;;;;8.20;7.40;;;16.90;99.90;;;;;;4992506;28;20184;-71
2023/09/08 05:04:53;;;;;;;9.97;8.00;;;16.90;99.90;;;;;;4992305;28;20193;-71
2023/09/08 05:07:19;;;;;;;9.10;8.10;;;16.90;99.90;;;;;;4992036;28;20189;-71
2023/09/08 05:09:44;;;;;;;7.67;7.03;;;16.90;99.90;;;;;;4992365;28;20227;-70
2023/09/08 05:12:10;;;;;;;8.67;7.57;;;16.90;99.90;;;;;;4992334;28;20263;-70
2023/09/08 05:14:36;;;;;;;11.03;7.93;;;16.90;99.90;;;;;;4991083;28;20184;-70
2023/09/08 05:17:01;;;;;;;9.53;8.23;;;16.90;99.90;;;;;;4992212;28;20177;-71
2023/09/08 05:19:27;;;;;;;8.23;7.43;;;16.90;99.90;;;;;;4991880;28;20193;-70
2023/09/08 05:21:54;;;;;;;12.23;7.80;;;16.90;99.90;;;;;;4991720;28;20205;-70
2023/09/08 05:24:20;;;;;;;8.00;7.30;;;16.90;99.90;;;;;;4992164;28;20180;-70
2023/09/08 05:26:46;;;;;;;9.17;8.07;;;17.00;99.90;;;;;;4992412;28;20562;-71
2023/09/08 05:29:12;;;;;;;10.03;8.13;;;17.00;99.90;;;;;;4991429;28;20246;-71
2023/09/08 05:31:38;;;;;;;8.97;7.10;;;17.00;99.90;;;;;;4992066;28;20188;-70
2023/09/08 05:34:04;;;;;;;9.87;7.53;;;17.00;99.90;;;;;;4991852;28;20276;-71
2023/09/08 05:36:29;;;;;;;8.17;7.37;;;17.10;99.90;;;;;;4992177;28;20260;-71
2023/09/08 05:38:55;;;;;;;8.10;6.93;;;17.10;99.90;;;;;;4991452;28;20288;-70
2023/09/08 05:41:21;;;;;;;8.30;7.07;;;17.20;99.90;;;;;;4991826;28;20208;-70
2023/09/08 05:43:47;;;;;;;7.67;6.80;;;17.20;99.90;;;;;;4992202;28;20591;-70
2023/09/08 05:46:13;;;;;;;8.07;6.67;;;17.20;99.90;;;;;;4991799;28;20181;-70
2023/09/08 05:48:38;;;;;;;10.47;7.07;;;17.30;99.90;;;;;;4989873;28;20572;-70
2023/09/08 05:51:06;;;;;;;9.87;7.20;;;17.40;99.90;;;;;;4990344;28;20267;-70
2023/09/08 05:53:32;;;;;;;10.83;5.97;;;17.40;99.90;;;;;;4991633;28;20268;-70
2023/09/08 05:55:58;;;;;;;7.93;7.10;;;17.50;99.90;;;;;;4991665;28;20177;-71
2023/09/08 05:58:26;;;;;;;8.97;6.33;;;17.50;99.90;;;;;;4991473;28;20201;-71
2023/09/08 06:00:55;;;;;;;7.83;7.03;;;17.50;99.90;;;;;;4991799;28;20595;-70
2023/09/08 06:03:21;;;;;;;10.60;7.63;;;17.60;99.90;;;;;;4991615;28;20183;-70
2023/09/08 06:05:46;;;;;;;36.13;32.93;;;17.60;99.90;;;;;;4991903;28;20184;-70
2023/09/08 06:08:12;;;;;;;12.50;6.83;;;17.70;99.90;;;;;;4991049;28;20259;-70
2023/09/08 06:10:38;;;;;;;9.20;6.73;;;17.70;99.90;;;;;;4991716;28;20180;-71
2023/09/08 06:13:04;;;;;;;7.53;6.83;;;17.80;99.90;;;;;;4991495;28;20181;-70
2023/09/08 06:15:30;;;;;;;10.20;7.13;;;17.90;99.90;;;;;;4991532;28;20173;-70
2023/09/08 06:17:56;;;;;;;9.23;6.63;;;18.00;99.90;;;;;;4991191;28;20668;-70
2023/09/08 06:20:21;;;;;;;6.97;6.37;;;18.20;99.90;;;;;;4990718;28;20183;-71
2023/09/08 06:22:47;;;;;;;7.23;6.53;;;18.60;99.90;;;;;;4991532;28;20192;-71
2023/09/08 06:25:13;;;;;;;7.78;6.57;;;19.10;99.90;;;;;;4991376;28;20245;-70
2023/09/08 06:27:39;;;;;;;8.85;6.03;;;19.60;99.90;;;;;;4991052;28;20236;-70
2023/09/08 06:30:05;;;;;;;6.97;6.28;;;20.20;99.90;;;;;;4991227;28;20647;-71
2023/09/08 06:32:31;;;;;;;12.00;6.60;;;20.70;99.90;;;;;;4990168;28;20681;-70
2023/09/08 06:34:56;;;;;;;9.65;5.72;;;21.20;22.50;;;;;;4991436;28;20181;-71
2023/09/08 06:37:22;;;;;;;6.32;5.75;;;21.70;99.90;;;;;;4991671;28;20577;-71
2023/09/08 06:39:47;;;;;;;6.50;4.88;;;22.10;99.90;;;;;;4990931;28;20292;-70
2023/09/08 06:42:13;;;;;;;6.90;5.25;;;22.40;26.60;;;;;;4992118;28;20177;-71
2023/09/08 06:44:39;;;;;;;5.40;4.88;;;22.80;1.00;;;;;;4992143;28;20259;-71
2023/09/08 06:47:06;;;;;;;5.97;4.80;;;23.20;99.90;;;;;;4991612;28;20181;-71
2023/09/08 06:49:32;;;;;;;7.05;5.20;;;23.50;1.00;;;;;;4991103;28;20192;-71
2023/09/08 06:51:58;;;;;;;5.18;4.72;;;23.80;1.00;;;;;;4991505;28;20196;-71
2023/09/08 06:54:23;;;;;;;6.60;5.32;;;24.00;1.00;;;;;;4991472;28;20176;-71
2023/09/08 06:56:49;;;;;;;8.82;5.20;;;24.30;1.00;;;;;;4990103;28;20548;-71
2023/09/08 06:59:15;;;;;;;5.80;5.20;;;24.60;1.00;;;;;;4991040;28;20560;-71
2023/09/08 07:01:40;;;;;;;7.68;5.72;;;24.90;1.00;;;;;;4994817;28;20212;-71
2023/09/08 07:04:06;;;;;;;5.05;4.57;;;25.20;1.00;;;;;;4994471;28;20180;-71
2023/09/08 07:06:32;;;;;;;6.32;4.80;;;25.50;1.00;;;;;;4994494;28;20664;-71
2023/09/08 07:08:57;;;;;;;5.65;5.15;;;25.70;1.00;;;;;;4994096;28;20220;-70
2023/09/08 07:11:23;;;;;;;6.22;5.43;;;26.10;1.00;;;;;;4994408;28;20185;-70
2023/09/08 07:13:48;;;;;;;7.78;4.80;;;26.40;1.00;;;;;;4994427;28;20177;-71
2023/09/08 07:16:14;;;;;;;10.02;4.63;;;26.60;1.00;;;;;;4994260;28;20906;-71
2023/09/08 07:18:39;;;;;;;10.35;4.72;;;26.80;1.00;;;;;;4994103;28;20203;-71
2023/09/08 07:21:06;;;;;;;5.65;4.78;;;27.10;1.00;;;;;;4994338;28;20719;-71
2023/09/08 07:23:31;;;;;;;6.45;5.85;;;27.40;1.00;;;;;;4994151;28;20227;-71
2023/09/08 07:25:57;;;;;;;8.15;5.65;;;27.60;1.00;;;;;;4994276;28;20203;-71
2023/09/08 07:28:23;;;;;;;6.78;4.55;;;27.80;1.00;;;;;;4993726;28;20575;-70
2023/09/08 07:30:48;;;;;;;5.47;4.97;;;27.90;1.00;;;;;;4994335;28;20227;-71
2023/09/08 07:33:14;;;;;;;5.57;5.07;;;28.00;1.00;;;;;;4993981;28;20235;-71
2023/09/08 07:35:40;;;;;;;5.72;5.20;;;28.10;1.00;;;;;;4994027;28;20264;-71
2023/09/08 07:38:07;;;;;;;7.30;5.20;;;28.20;99.90;;;;;;4992325;28;20207;-71
2023/09/08 07:40:35;;;;;;;6.80;4.70;;;28.20;99.90;;;;;;4994159;28;20263;-71
2023/09/08 07:43:02;;;;;;;9.95;4.57;;;28.30;99.90;;;;;;4994162;28;20586;-70
2023/09/08 07:45:28;;;;;;;7.60;4.53;;;28.40;99.90;;;;;;4993911;28;20201;-70
2023/09/08 07:47:53;;;;;;;6.13;5.03;;;28.70;99.90;;;;;;4993450;28;20235;-71
2023/09/08 07:50:24;;;;;;;8.30;5.38;;;28.70;99.90;;;;;;4993905;28;20181;-71
2023/09/08 07:52:51;;;;;;;5.97;5.35;;;28.90;99.90;;;;;;4993882;28;20235;-71
2023/09/08 07:55:17;;;;;;;8.35;4.63;;;29.10;99.90;;;;;;4993642;28;20558;-70
2023/09/08 07:57:45;;;;;;;5.18;4.68;;;29.00;99.90;;;;;;4992040;28;20181;-71
2023/09/08 08:00:12;;;;;;;9.32;5.10;;;29.20;99.90;;;;;;4993682;28;20180;-71
2023/09/08 08:02:42;;;;;;;6.20;4.50;;;29.30;99.90;;;;;;4993792;28;20192;-70
2023/09/08 08:05:08;;;;;;;4.95;4.30;;;29.50;99.90;;;;;;4993660;28;20184;-71
2023/09/08 08:07:33;;;;;;;7.03;5.00;;;29.60;99.90;;;;;;4993046;28;20199;-71
2023/09/08 08:09:59;;;;;;;4.95;4.45;;;29.60;99.90;;;;;;4993430;28;20204;-71
2023/09/08 08:12:25;;;;;;;7.65;4.65;;;29.60;99.90;;;;;;4993201;28;20193;-70
2023/09/08 08:14:50;;;;;;;6.72;4.72;;;29.50;99.90;;;;;;4993554;28;20188;-71
2023/09/08 08:17:18;;;;;;;6.72;4.70;;;29.50;99.90;;;;;;4992877;28;20276;-70
2023/09/08 08:19:43;;;;;;;6.28;4.80;;;29.60;99.90;;;;;;4993265;28;20746;-71
2023/09/08 08:22:09;;;;;;;7.22;5.40;;;29.90;99.90;;;;;;4992884;28;20193;-70
2023/09/08 08:24:34;;;;;;;7.07;4.63;;;30.10;99.90;;;;;;4993298;28;20180;-71
2023/09/08 08:27:01;;;;;;;5.63;4.82;;;30.30;99.90;;;;;;4993089;28;20575;-71
2023/09/08 08:29:27;;;;;;;5.60;4.30;;;30.40;99.90;;;;;;4992510;28;20212;-72
2023/09/08 08:31:52;;;;;;;5.63;4.25;;;30.40;99.90;;;;;;4993033;28;20181;-71
2023/09/08 08:34:18;;;;;;;5.15;4.22;;;30.60;99.90;;;;;;4992882;28;20177;-71
2023/09/08 08:36:44;;;;;;;5.30;4.68;;;31.00;99.90;;;;;;4991700;28;20212;-72
2023/09/08 08:39:09;;;;;;;6.18;4.70;;;31.30;99.90;;;;;;4992411;28;20211;-71
2023/09/08 08:41:39;;;;;;;5.32;4.70;;;31.30;99.90;;;;;;4992742;28;20187;-71
2023/09/08 08:44:06;;;;;;;8.15;4.80;;;31.20;99.90;;;;;;4992767;28;20181;-71
2023/09/08 08:46:33;;;;;;;4.35;3.95;;;31.10;99.90;;;;;;4992780;28;20524;-71
2023/09/08 08:49:02;;;;;;;5.60;4.10;;;31.00;99.90;;;;;;4992397;28;20287;-71
2023/09/08 08:51:29;;;;;;;7.75;4.75;;;30.90;99.90;;;;;;4992552;28;20207;-71
2023/09/08 08:53:55;;;;;;;5.35;4.57;;;31.10;99.90;;;;;;4992565;28;20188;-72
2023/09/08 08:56:22;;;;;;;7.68;4.43;;;31.30;99.90;;;;;;4992576;28;20181;-70
2023/09/08 08:58:49;;;;;;;5.28;4.78;;;31.40;99.90;;;;;;4990984;28;20634;-71
2023/09/08 09:01:18;;;;;;;5.85;4.50;;;31.60;99.90;;;;;;4992354;28;20215;-71
2023/09/08 09:03:48;;;;;;;5.13;4.38;;;32.00;99.90;;;;;;4992324;28;20184;-71
2023/09/08 09:06:14;;;;;;;4.47;3.85;;;32.50;99.90;;;;;;4992295;28;20555;-71
2023/09/08 09:08:43;;;;;;;4.97;4.45;;;33.10;99.90;;;;;;4990692;28;20209;-72
2023/09/08 09:11:09;;;;;;;6.03;4.53;;;33.50;99.90;;;;;;4992332;28;20303;-71
2023/09/08 09:13:34;;;;;;;4.68;4.28;;;33.70;99.90;;;;;;4992160;28;20180;-71
2023/09/08 09:16:03;;;;;;;5.32;4.32;;;34.10;99.90;;;;;;4992276;28;20212;-72
2023/09/08 09:18:32;;;;;;;7.72;4.57;;;34.10;99.90;;;;;;4991948;28;20272;-71
2023/09/08 09:21:00;;;;;;;4.90;4.50;;;34.30;99.90;;;;;;4992025;28;20188;-71
2023/09/08 09:23:34;;;;;;;4.97;4.47;;;34.60;99.90;;;;;;4991365;28;20177;-71
2023/09/08 09:26:01;;;;;;;5.88;4.13;;;34.60;99.90;;;;;;4992045;28;20534;-71
2023/09/08 09:28:29;;;;;;;6.65;4.38;;;34.60;99.90;;;;;;4991462;28;20209;-70
2023/09/08 09:30:55;;;;;;;5.05;4.60;;;34.20;99.90;;;;;;4992338;28;20189;-71
2023/09/08 09:33:21;;;;;;;5.93;5.43;;;33.80;99.90;;;;;;4991865;28;20181;-71
2023/09/08 09:35:49;;;;;;;8.48;4.80;;;33.50;99.90;;;;;;4991862;28;20575;-71
2023/09/08 09:38:16;;;;;;;9.85;6.85;;;33.50;99.90;;;;;;4991506;28;20205;-71
2023/09/08 09:40:42;;;;;;;6.65;5.93;;;33.20;99.90;;;;;;4992006;28;20187;-71
2023/09/08 09:43:09;;;;;;;5.75;5.15;;;33.20;99.90;;;;;;4991852;28;20185;-71
2023/09/08 09:45:36;;;;;;;7.03;4.50;;;33.30;99.90;;;;;;4991776;28;20519;-71
2023/09/08 09:48:06;;;;;;;5.07;4.40;;;33.50;99.90;;;;;;4991492;28;20220;-71
2023/09/08 09:50:34;;;;;;;6.90;4.18;;;33.90;99.90;;;;;;4991793;28;20264;-71
2023/09/08 09:53:07;;;;;;;6.40;4.80;;;34.20;99.90;;;;;;4991771;28;20308;-71
2023/09/08 09:55:36;;;;;;;5.03;4.57;;;34.40;99.90;;;;;;4991721;28;20173;-71
2023/09/08 09:58:03;;;;;;;4.25;3.85;;;34.60;99.90;;;;;;4991646;28;20212;-70
2023/09/08 10:00:30;;;;;;;5.40;4.22;;;34.60;99.90;;;;;;4991557;28;20271;-71
2023/09/08 10:02:56;;;;;;;4.45;4.05;;;34.40;99.90;;;;;;4991732;28;20256;-71
2023/09/08 10:05:24;;;;;;;5.88;4.07;;;34.40;99.90;;;;;;4991521;28;20184;-71
2023/09/08 10:07:50;;;;;;;6.57;4.85;;;34.30;99.90;;;;;;4991068;28;20211;-71
2023/09/08 10:10:16;;;;;;;4.60;4.20;;;34.30;99.90;;;;;;4991518;28;20267;-71
2023/09/08 10:12:49;;;;;;;6.97;5.05;;;34.20;99.90;;;;;;4991548;28;20169;-72
2023/09/08 10:15:19;;;;;;;4.97;4.45;;;34.10;99.90;;;;;;4991429;28;20236;-71
2023/09/08 10:17:46;;;;;;;7.53;4.78;;;34.00;99.90;;;;;;4991156;28;20185;-71
2023/09/08 10:20:12;;;;;;;5.53;4.85;;;33.90;99.90;;;;;;4991504;28;20185;-71
2023/09/08 10:22:46;;;;;;;8.30;4.38;;;33.70;99.90;;;;;;4991071;28;20191;-70
2023/09/08 10:25:14;;;;;;;5.40;4.47;;;33.50;99.90;;;;;;4991463;28;20173;-71
2023/09/08 10:27:42;;;;;;;8.40;4.68;;;33.40;99.90;;;;;;4991131;28;20220;-71
2023/09/08 10:30:09;;;;;;;4.78;4.38;;;33.30;99.90;;;;;;4991205;28;20203;-70
2023/09/08 10:32:36;;;;;;;6.32;5.13;;;33.20;99.90;;;;;;4991518;28;20224;-70
2023/09/08 10:35:06;;;;;;;5.47;4.78;;;33.00;99.90;;;;;;4994521;28;20188;-70
2023/09/08 10:37:32;;;;;;;5.47;5.00;;;32.90;99.90;;;;;;4994976;28;20185;-70
2023/09/08 10:40:24;;;;;;;10.27;5.07;;;32.70;99.90;;;;;;4995006;28;20209;-71
2023/09/08 10:43:05;;;;;;;5.75;4.45;;;32.50;99.90;;;;;;4995143;28;20200;-71
2023/09/08 10:45:30;;;;;;;4.63;4.22;;;32.50;99.90;;;;;;4986932;28;20188;-70
2023/09/08 10:47:57;;;;;;;6.53;4.05;;;32.50;99.90;;;;;;4994428;28;20208;-70
2023/09/08 10:50:30;;;;;;;4.80;4.18;;;32.50;99.90;;;;;;4994793;28;20184;-70
2023/09/08 10:53:15;;;;;;;5.75;4.10;;;32.60;99.90;;;;;;4994969;28;20185;-70
2023/09/08 10:55:53;;;;;;;5.15;4.65;;;32.70;99.90;;;;;;4994714;28;20575;-70
2023/09/08 10:58:42;;;;;;;4.97;4.47;;;32.80;99.90;;;;;;4994390;28;20211;-70
2023/09/08 11:01:12;;;;;;;5.38;4.30;;;32.60;99.90;;;;;;4994763;28;20185;-70
2023/09/08 11:03:37;;;;;;;6.72;4.40;;;32.40;99.90;;;;;;4994616;28;20180;-69
2023/09/08 11:06:04;;;;;;;5.60;4.93;;;32.20;99.90;;;;;;4993385;28;20200;-70
2023/09/08 11:08:30;;;;;;;4.70;4.30;;;32.10;99.90;;;;;;4994003;28;20222;-72
2023/09/08 11:10:56;;;;;;;7.43;4.82;;;32.00;99.90;;;;;;4994683;28;20216;-70
2023/09/08 11:13:22;;;;;;;4.68;4.28;;;32.00;99.90;;;;;;4994303;28;20250;-70
2023/09/08 11:15:50;;;;;;;6.75;4.80;;;32.10;99.90;;;;;;4994360;28;20180;-71
2023/09/08 11:18:16;;;;;;;6.55;5.13;;;32.00;99.90;;;;;;4993985;28;20212;-70
2023/09/08 11:20:42;;;;;;;9.60;4.97;;;32.10;99.90;;;;;;4992929;28;20181;-70
2023/09/08 11:23:08;;;;;;;8.32;4.85;;;32.20;99.90;;;;;;4994333;28;20471;-70
2023/09/08 11:25:34;;;;;;;7.50;4.70;;;32.20;99.90;;;;;;4994343;28;20268;-70
2023/09/08 11:28:00;;;;;;;6.03;4.50;;;32.20;99.90;;;;;;4993536;28;20285;-70
2023/09/08 11:30:26;;;;;;;5.18;4.78;;;32.30;99.90;;;;;;4993978;28;20192;-71
2023/09/08 11:32:52;;;;;;;7.95;5.05;;;32.40;99.90;;;;;;4994161;28;20579;-70
2023/09/08 11:35:20;;;;;;;8.50;4.70;;;32.50;99.90;;;;;;4993959;28;20239;-71
2023/09/08 11:37:46;;;;;;;6.85;5.03;;;32.50;99.90;;;;;;4993613;28;20173;-70
2023/09/08 11:40:13;;;;;;;5.88;4.70;;;32.60;99.90;;;;;;4993914;28;20239;-71
2023/09/08 11:42:46;;;;;;;5.13;4.63;;;32.60;99.90;;;;;;4992921;28;20272;-70
2023/09/08 11:45:13;;;;;;;5.10;4.60;;;32.70;99.90;;;;;;4993463;28;20231;-71
2023/09/08 11:47:42;;;;;;;4.72;4.07;;;32.70;99.90;;;;;;4993392;28;20200;-70
2023/09/08 11:50:15;;;;;;;5.65;4.30;;;32.80;99.90;;;;;;4993031;28;20652;-70
2023/09/08 11:52:44;;;;;;;5.30;4.40;;;33.00;99.90;;;;;;4992526;28;20184;-70
2023/09/08 11:55:11;;;;;;;7.35;4.65;;;33.30;99.90;;;;;;4993680;28;20181;-70
2023/09/08 11:57:37;;;;;;;4.95;4.43;;;33.40;99.90;;;;;;4993460;28;20189;-71
2023/09/08 12:00:05;;;;;;;7.25;5.13;;;33.50;99.90;;;;;;4993688;28;20740;-71
2023/09/08 12:02:35;;;;;;;5.47;4.95;;;33.70;99.90;;;;;;4993422;28;20211;-70
2023/09/08 12:05:02;;;;;;;5.60;5.10;;;33.90;99.90;;;;;;4993695;28;20264;-71
2023/09/08 12:07:28;;;;;;;6.18;4.70;;;34.10;99.90;;;;;;4993030;28;20193;-71
2023/09/08 12:09:54;;;;;;;5.22;4.82;;;34.20;99.90;;;;;;4991959;28;20193;-71
2023/09/08 12:12:19;;;;;;;5.50;5.05;;;34.00;99.90;;;;;;4993145;28;20179;-70
2023/09/08 12:14:45;;;;;;;7.25;5.57;;;34.10;99.90;;;;;;4993366;28;20739;-70
2023/09/08 12:17:13;;;;;;;7.25;5.55;;;34.30;99.90;;;;;;4993204;28;20663;-70
2023/09/08 12:19:39;;;;;;;5.45;5.00;;;34.50;99.90;;;;;;4993547;28;20676;-70
2023/09/08 12:22:07;;;;;;;7.63;4.90;;;34.70;99.90;;;;;;4993189;28;20243;-70
2023/09/08 12:24:52;;;;;;;4.65;4.20;;;34.80;99.90;;;;;;4991742;28;20181;-70
2023/09/08 12:27:19;;;;;;;6.18;5.28;;;34.80;99.90;;;;;;4992716;28;20223;-71
2023/09/08 12:29:58;;;;;;;5.28;4.78;;;34.90;99.90;;;;;;4992944;28;20212;-70
2023/09/08 12:32:25;;;;;;;5.07;4.57;;;35.00;99.90;;;;;;4992996;28;20238;-71
2023/09/08 12:34:52;;;;;;;6.30;4.43;;;35.10;99.90;;;;;;4993179;28;20260;-71
2023/09/08 12:37:27;;;;;;;5.22;4.07;;;35.20;99.90;;;;;;4992904;28;20640;-71
2023/09/08 12:39:53;;;;;;;4.97;4.28;;;35.40;99.90;;;;;;4992832;28;20203;-71
2023/09/08 12:42:19;;;;;;;5.72;4.00;;;35.60;99.90;;;;;;4992747;28;20181;-71
2023/09/08 12:44:45;;;;;;;7.85;4.30;;;35.70;99.90;;;;;;4992902;28;20196;-71